Time;durP1;ratioP1;P1;durP2;ratioP2;P2;SDS_P1;SDS_P2;PMS_P1;PMS_P2;Temp;Humidity;BMP_temperature;BMP_pressure;BME280_temperature;BME280_humidity;BME280_pressure;Samples;Min_cycle;Max_cycle;Signal;HPM_P1;HPM_P2
2022/11/28 00:00:25;;;;;;;18.35;9.57;;;;;;;;;;5035230;28;20026;-64
2022/11/28 00:02:51;;;;;;;18.17;9.82;;;;;;;;;;5017623;28;20072;-62
2022/11/28 00:05:17;;;;;;;16.92;9.63;;;;;;;;;;5035088;28;20029;-63
2022/11/28 00:07:43;;;;;;;18.45;9.20;;;;;;;;;;5017672;28;20033;-62
2022/11/28 00:10:09;;;;;;;16.67;9.10;;;;;;;;;;5035027;28;20025;-63
2022/11/28 00:12:36;;;;;;;16.98;9.80;;;;;;;;;;5017156;28;20087;-62
2022/11/28 00:15:02;;;;;;;17.35;9.63;;;;;;;;;;5034854;28;20116;-62
2022/11/28 00:17:28;;;;;;;17.73;9.52;;;;;;;;;;5034822;28;20029;-63
2022/11/28 00:19:54;;;;;;;15.93;9.05;;;;;;;;;;5017036;28;20126;-65
2022/11/28 00:22:20;;;;;;;16.58;9.40;;;;;;;;;;5034848;28;20053;-62
2022/11/28 00:24:49;;;;;;;17.98;9.00;;;;;;;;;;5034914;28;20104;-63
2022/11/28 00:27:15;;;;;;;15.80;8.18;;;;;;;;;;5034700;28;20018;-62
2022/11/28 00:29:41;;;;;;;16.42;8.98;;;;;;;;;;5016893;28;20393;-61
2022/11/28 00:32:07;;;;;;;17.05;9.30;;;;;;;;;;5034811;28;20079;-62
2022/11/28 00:34:33;;;;;;;18.23;9.25;;;;;;;;;;5034321;28;20074;-64
2022/11/28 00:36:59;;;;;;;17.33;9.20;;;;;;;;;;5033337;28;20084;-65
2022/11/28 00:39:25;;;;;;;16.52;8.93;;;;;;;;;;5016480;28;20033;-66
2022/11/28 00:41:51;;;;;;;16.83;9.23;;;;;;;;;;5016700;28;20478;-64
2022/11/28 00:44:17;;;;;;;16.75;9.70;;;;;;;;;;5034008;28;20025;-62
2022/11/28 00:46:43;;;;;;;17.75;9.35;;;;;;;;;;5034300;28;20026;-61
2022/11/28 00:49:09;;;;;;;17.23;9.30;;;;;;;;;;5016563;28;20025;-62
2022/11/28 00:51:51;;;;;;;17.17;9.30;;;;;;;;;;5034305;28;20452;-63
2022/11/28 00:54:17;;;;;;;16.60;9.27;;;;;;;;;;5033980;28;20394;-63
2022/11/28 00:56:43;;;;;;;18.48;10.45;;;;;;;;;;5034247;28;20025;-63
2022/11/28 00:59:09;;;;;;;17.45;9.63;;;;;;;;;;5034017;28;20029;-59
2022/11/28 01:01:37;;;;;;;17.30;8.93;;;;;;;;;;5016548;28;20112;-62
2022/11/28 01:04:04;;;;;;;17.75;10.23;;;;;;;;;;5016149;28;20045;-63
2022/11/28 01:06:32;;;;;;;18.37;9.83;;;;;;;;;;5016375;28;20123;-65
2022/11/28 01:09:00;;;;;;;16.55;9.35;;;;;;;;;;5033701;28;20060;-62
2022/11/28 01:11:26;;;;;;;16.73;9.57;;;;;;;;;;5016003;28;20036;-63
2022/11/28 01:13:54;;;;;;;18.58;9.32;;;;;;;;;;5015913;28;20028;-61
2022/11/28 01:16:20;;;;;;;17.27;9.95;;;;;;;;;;5033852;28;20036;-63
2022/11/28 01:18:46;;;;;;;18.52;9.88;;;;;;;;;;5033524;28;20393;-60
2022/11/28 01:21:12;;;;;;;18.77;9.88;;;;;;;;;;5033709;28;20451;-61
2022/11/28 01:23:38;;;;;;;18.10;10.25;;;;;;;;;;5033241;28;20057;-62
2022/11/28 01:26:05;;;;;;;18.95;9.98;;;;;;;;;;5015761;28;20112;-63
2022/11/28 01:28:31;;;;;;;16.92;10.20;;;;;;;;;;5033574;28;20025;-61
2022/11/28 01:31:02;;;;;;;19.30;10.90;;;;;;;;;;5033550;28;20099;-62
2022/11/28 01:33:28;;;;;;;17.95;10.73;;;;;;;;;;5015585;28;20025;-63
2022/11/28 01:35:55;;;;;;;17.80;9.77;;;;;;;;;;5033477;28;20030;-63
2022/11/28 01:38:21;;;;;;;17.85;10.20;;;;;;;;;;5033096;28;20040;-60
2022/11/28 01:40:47;;;;;;;16.38;9.80;;;;;;;;;;5033258;28;20040;-62
2022/11/28 01:43:13;;;;;;;18.42;10.15;;;;;;;;;;5033043;28;20025;-61
2022/11/28 01:45:39;;;;;;;16.83;9.68;;;;;;;;;;5033251;28;20036;-63
2022/11/28 01:48:07;;;;;;;20.02;10.55;;;;;;;;;;5014820;28;20513;-62
2022/11/28 01:50:34;;;;;;;18.40;10.68;;;;;;;;;;5015161;28;20034;-62
2022/11/28 01:53:03;;;;;;;16.83;9.75;;;;;;;;;;5032824;28;20029;-63
2022/11/28 01:55:33;;;;;;;18.23;10.50;;;;;;;;;;5015204;28;20048;-62
2022/11/28 01:57:59;;;;;;;17.17;9.77;;;;;;;;;;5015191;28;20030;-62
2022/11/28 02:00:25;;;;;;;18.33;9.90;;;;;;;;;;5032770;28;20033;-66
2022/11/28 02:02:52;;;;;;;18.08;10.32;;;;;;;;;;5033045;28;20589;-62
2022/11/28 02:05:19;;;;;;;17.85;10.35;;;;;;;;;;5014990;28;20022;-63
2022/11/28 02:07:46;;;;;;;18.63;10.68;;;;;;;;;;5032965;28;20045;-63
2022/11/28 02:10:15;;;;;;;19.55;9.68;;;;;;;;;;5032865;28;20397;-63
2022/11/28 02:12:53;;;;;;;18.80;10.77;;;;;;;;;;5032585;28;20060;-65
2022/11/28 02:15:19;;;;;;;17.80;9.88;;;;;;;;;;5032743;28;20466;-64
2022/11/28 02:17:48;;;;;;;17.08;9.70;;;;;;;;;;5015041;28;20118;-64
2022/11/28 02:20:33;;;;;;;17.90;10.60;;;;;;;;;;5032618;28;20053;-63
2022/11/28 02:23:05;;;;;;;20.02;10.77;;;;;;;;;;5032670;28;20026;-63
2022/11/28 02:25:31;;;;;;;18.85;10.27;;;;;;;;;;5032668;28;20025;-63
2022/11/28 02:27:57;;;;;;;18.38;10.50;;;;;;;;;;5032485;28;20021;-62
2022/11/28 02:30:32;;;;;;;17.45;10.15;;;;;;;;;;5032495;28;20101;-64
2022/11/28 02:33:01;;;;;;;18.33;11.07;;;;;;;;;;5014895;28;20481;-65
2022/11/28 02:35:45;;;;;;;17.83;10.43;;;;;;;;;;5032582;28;20429;-63
2022/11/28 02:38:36;;;;;;;17.98;9.93;;;;;;;;;;5032080;28;20486;-62
2022/11/28 02:41:08;;;;;;;17.45;9.93;;;;;;;;;;5031763;28;20029;-64
2022/11/28 02:43:40;;;;;;;19.10;11.02;;;;;;;;;;5031412;28;20029;-62
2022/11/28 02:46:11;;;;;;;19.05;10.50;;;;;;;;;;5014057;28;20033;-64
2022/11/28 02:48:45;;;;;;;18.75;10.85;;;;;;;;;;5013642;28;20034;-61
2022/11/28 02:51:24;;;;;;;17.75;10.60;;;;;;;;;;5013950;28;20390;-64
2022/11/28 02:53:50;;;;;;;18.58;10.55;;;;;;;;;;5013876;28;20032;-59
2022/11/28 02:56:16;;;;;;;18.33;10.55;;;;;;;;;;5031348;28;20060;-61
2022/11/28 02:58:42;;;;;;;17.85;10.73;;;;;;;;;;5031018;28;20034;-64
2022/11/28 03:01:23;;;;;;;18.75;10.65;;;;;;;;;;5017178;28;20140;-64
2022/11/28 03:04:01;;;;;;;17.27;10.98;;;;;;;;;;5017063;28;20409;-61
2022/11/28 03:06:34;;;;;;;17.92;10.95;;;;;;;;;;5017314;28;20021;-63
2022/11/28 03:09:18;;;;;;;17.55;10.90;;;;;;;;;;5035117;28;20120;-63
2022/11/28 03:12:02;;;;;;;17.75;10.85;;;;;;;;;;5017248;28;20511;-62
2022/11/28 03:14:51;;;;;;;19.95;10.65;;;;;;;;;;5034819;28;20036;-61
2022/11/28 03:17:20;;;;;;;18.02;10.45;;;;;;;;;;5029543;28;20473;-59
2022/11/28 03:20:05;;;;;;;18.70;10.77;;;;;;;;;;5016857;28;20025;-62
2022/11/28 03:22:46;;;;;;;19.27;11.07;;;;;;;;;;5034569;28;20079;-62
2022/11/28 03:25:24;;;;;;;19.90;10.75;;;;;;;;;;5034355;28;20026;-61
2022/11/28 03:28:06;;;;;;;17.15;10.68;;;;;;;;;;5034366;28;20084;-62
2022/11/28 03:30:37;;;;;;;18.05;11.00;;;;;;;;;;5034536;28;20025;-61
2022/11/28 03:33:03;;;;;;;19.55;10.60;;;;;;;;;;5016529;28;20025;-62
2022/11/28 03:35:32;;;;;;;18.02;10.57;;;;;;;;;;5034336;28;20026;-60
2022/11/28 03:40:44;;;;;;;18.48;11.32;;;;;;;;;;5069780;28;20397;-63
2022/11/28 03:43:10;;;;;;;;;;;;;;;;;;5069756;28;20036;-61
2022/11/28 03:45:40;;;;;;;19.15;10.60;;;;;;;;;;5069966;28;19912;-61
2022/11/28 03:48:12;;;;;;;20.92;11.30;;;;;;;;;;5068333;28;20025;-61
2022/11/28 03:50:44;;;;;;;19.55;11.32;;;;;;;;;;5069582;28;20059;-62
2022/11/28 03:53:13;;;;;;;20.42;11.63;;;;;;;;;;5067883;28;20052;-58
2022/11/28 03:55:40;;;;;;;18.67;11.25;;;;;;;;;;5068120;28;20079;-61
2022/11/28 03:58:18;;;;;;;20.80;11.17;;;;;;;;;;5069310;28;20548;-61
2022/11/28 04:00:51;;;;;;;18.67;11.07;;;;;;;;;;5069228;28;20031;-59
2022/11/28 04:03:22;;;;;;;18.77;11.65;;;;;;;;;;5069180;28;20103;-61
2022/11/28 04:05:59;;;;;;;19.90;11.40;;;;;;;;;;5067994;28;20060;-61
2022/11/28 04:08:36;;;;;;;19.17;11.13;;;;;;;;;;5068176;28;20653;-61
2022/11/28 04:11:24;;;;;;;19.05;12.07;;;;;;;;;;5069214;28;20473;-62
2022/11/28 04:13:54;;;;;;;18.90;12.30;;;;;;;;;;5067843;28;20021;-62
2022/11/28 04:16:29;;;;;;;18.35;11.98;;;;;;;;;;5069024;28;20021;-61
2022/11/28 04:18:59;;;;;;;18.35;12.38;;;;;;;;;;5068301;28;20032;-60
2022/11/28 04:21:28;;;;;;;19.35;12.68;;;;;;;;;;5068573;28;20035;-59
2022/11/28 04:23:55;;;;;;;18.85;12.38;;;;;;;;;;5068776;28;20032;-62
2022/11/28 04:26:29;;;;;;;21.33;14.20;;;;;;;;;;5068932;28;20100;-61
2022/11/28 04:28:57;;;;;;;20.90;12.98;;;;;;;;;;5067880;28;20029;-62
2022/11/28 04:31:23;;;;;;;19.50;12.35;;;;;;;;;;5069156;28;20029;-62
2022/11/28 04:33:51;;;;;;;20.05;13.38;;;;;;;;;;5068380;28;20025;-60
2022/11/28 04:36:18;;;;;;;20.55;12.48;;;;;;;;;;5068522;28;20021;-61
2022/11/28 04:38:53;;;;;;;19.40;12.40;;;;;;;;;;5068146;28;20029;-63
2022/11/28 04:41:21;;;;;;;21.08;13.60;;;;;;;;;;5067038;28;20081;-62
2022/11/28 04:43:56;;;;;;;19.92;13.60;;;;;;;;;;5068455;28;20025;-61
2022/11/28 04:46:25;;;;;;;21.60;13.82;;;;;;;;;;5068443;28;20515;-63
2022/11/28 04:48:51;;;;;;;22.30;14.35;;;;;;;;;;5068193;28;20052;-66
2022/11/28 04:51:27;;;;;;;21.40;15.02;;;;;;;;;;5057818;28;20037;-64
2022/11/28 04:53:56;;;;;;;21.10;15.30;;;;;;;;;;5053551;28;20033;-61
2022/11/28 04:56:27;;;;;;;22.77;14.73;;;;;;;;;;5055325;28;20029;-63
2022/11/28 04:58:53;;;;;;;21.17;14.40;;;;;;;;;;5055854;28;20107;-63
2022/11/28 05:01:24;;;;;;;22.95;14.38;;;;;;;;;;5055293;28;20021;-63
2022/11/28 05:03:50;;;;;;;21.20;15.07;;;;;;;;;;5054679;28;20104;-62
2022/11/28 05:06:30;;;;;;;23.02;15.68;;;;;;;;;;5054961;28;20096;-63
2022/11/28 05:08:56;;;;;;;21.63;16.23;;;;;;;;;;5053514;28;20025;-62
2022/11/28 05:11:22;;;;;;;27.38;20.08;;;;;;;;;;5054629;28;20424;-61
2022/11/28 05:13:48;;;;;;;24.10;21.55;;;;;;;;;;5053222;28;20057;-61
2022/11/28 05:16:15;;;;;;;24.20;21.55;;;;;;;;;;5054573;28;20025;-61
2022/11/28 05:18:41;;;;;;;23.92;21.35;;;;;;;;;;5054543;28;20493;-63
2022/11/28 05:21:07;;;;;;;25.77;23.13;;;;;;;;;;5052966;28;20547;-63
2022/11/28 05:23:37;;;;;;;25.55;22.95;;;;;;;;;;5052764;28;20025;-61
2022/11/28 05:26:07;;;;;;;26.02;23.33;;;;;;;;;;5053038;28;20029;-60
2022/11/28 05:28:33;;;;;;;26.38;23.67;;;;;;;;;;5054459;28;20032;-61
2022/11/28 05:31:00;;;;;;;26.52;23.75;;;;;;;;;;5054108;28;20017;-60
2022/11/28 05:33:26;;;;;;;25.17;22.65;;;;;;;;;;5052644;28;20029;-60
2022/11/28 05:35:52;;;;;;;25.95;23.25;;;;;;;;;;5054053;28;20052;-61
2022/11/28 05:38:18;;;;;;;27.13;23.60;;;;;;;;;;5052680;28;20028;-61
2022/11/28 05:40:44;;;;;;;26.92;24.13;;;;;;;;;;5056945;22;20441;-66
2022/11/28 05:43:10;;;;;;;27.20;24.13;;;;;;;;;;5031124;28;20021;-65
2022/11/28 05:45:40;;;;;;;26.95;24.25;;;;;;;;;;5032249;28;20557;-66
2022/11/28 05:48:06;;;;;;;27.58;24.60;;;;;;;;;;5031916;28;20028;-65
2022/11/28 05:50:32;;;;;;;27.05;24.15;;;;;;;;;;5031689;28;20021;-64
2022/11/28 05:52:58;;;;;;;27.50;24.58;;;;;;;;;;5032165;28;20021;-65
2022/11/28 05:55:24;;;;;;;26.95;24.25;;;;;;;;;;5031795;28;20135;-66
2022/11/28 05:57:50;;;;;;;27.25;24.10;;;;;;;;;;5031912;28;20539;-66
2022/11/28 06:00:16;;;;;;;27.52;24.65;;;;;;;;;;5014065;28;20029;-65
2022/11/28 06:02:42;;;;;;;25.73;22.92;;;;;;;;;;5030451;28;20029;-65
2022/11/28 06:05:08;;;;;;;26.85;23.98;;;;;;;;;;5031103;28;20170;-66
2022/11/28 06:07:34;;;;;;;27.05;24.15;;;;;;;;;;5013689;28;20032;-66
2022/11/28 06:10:00;;;;;;;27.75;24.35;;;;;;;;;;5031744;28;20108;-66
2022/11/28 06:12:26;;;;;;;27.08;24.00;;;;;;;;;;5031423;28;20358;-65
2022/11/28 06:14:52;;;;;;;26.20;23.55;;;;;;;;;;5013141;28;20072;-65
2022/11/28 06:17:18;;;;;;;26.50;23.38;;;;;;;;;;5031411;28;20068;-66
2022/11/28 06:19:44;;;;;;;26.38;23.67;;;;;;;;;;5031274;28;20030;-65
2022/11/28 06:22:10;;;;;;;27.40;24.60;;;;;;;;;;5031061;28;20350;-64
2022/11/28 06:24:36;;;;;;;27.60;24.60;;;;;;;;;;5030941;28;20120;-66
2022/11/28 06:27:02;;;;;;;26.50;23.77;;;;;;;;;;5030931;28;20030;-66
2022/11/28 06:29:28;;;;;;;27.08;23.88;;;;;;;;;;5030868;28;20386;-62
2022/11/28 06:31:55;;;;;;;28.23;25.20;;;;;;;;;;5012916;28;20079;-65
2022/11/28 06:34:21;;;;;;;27.48;24.60;;;;;;;;;;5030821;28;20435;-64
2022/11/28 06:36:47;;;;;;;28.15;24.55;;;;;;;;;;5031814;28;20101;-62
2022/11/28 06:39:14;;;;;;;28.25;24.52;;;;;;;;;;5030667;28;20512;-63
2022/11/28 06:41:40;;;;;;;26.80;24.00;;;;;;;;;;5031321;28;20481;-65
2022/11/28 06:44:06;;;;;;;27.02;24.23;;;;;;;;;;5030788;28;20026;-64
2022/11/28 06:46:33;;;;;;;26.92;24.02;;;;;;;;;;5013131;28;20560;-66
2022/11/28 06:49:00;;;;;;;32.65;25.15;;;;;;;;;;5013200;28;20112;-65
2022/11/28 06:51:25;;;;;;;26.40;23.60;;;;;;;;;;5030879;28;20033;-66
2022/11/28 06:53:51;;;;;;;27.70;24.60;;;;;;;;;;5012966;28;20029;-65
2022/11/28 06:56:19;;;;;;;26.33;23.63;;;;;;;;;;5031005;28;20049;-66
2022/11/28 06:58:45;;;;;;;28.27;25.27;;;;;;;;;;5030780;28;20502;-65
2022/11/28 07:01:15;;;;;;;27.05;24.15;;;;;;;;;;5030494;28;20022;-65
2022/11/28 07:03:42;;;;;;;27.42;24.50;;;;;;;;;;5030407;28;20040;-66
2022/11/28 07:06:09;;;;;;;28.15;23.75;;;;;;;;;;5030431;28;20017;-65
2022/11/28 07:08:35;;;;;;;26.00;23.17;;;;;;;;;;5030602;28;20032;-66
2022/11/28 07:11:18;;;;;;;26.13;23.00;;;;;;;;;;5030046;28;20026;-65
2022/11/28 07:13:44;;;;;;;28.00;23.70;;;;;;;;;;5030025;28;20111;-64
2022/11/28 07:16:21;;;;;;;25.05;22.52;;;;;;;;;;5030571;28;20029;-61
2022/11/28 07:18:47;;;;;;;26.13;23.25;;;;;;;;;;5030594;28;20108;-65
2022/11/28 07:21:14;;;;;;;25.27;22.63;;;;;;;;;;5030440;28;20022;-65
2022/11/28 07:23:41;;;;;;;24.67;22.08;;;;;;;;;;5030483;28;20460;-66
2022/11/28 07:26:07;;;;;;;28.55;23.75;;;;;;;;;;5030387;28;20048;-66
2022/11/28 07:28:34;;;;;;;25.80;23.10;;;;;;;;;;5030333;28;20022;-64
2022/11/28 07:31:04;;;;;;;25.65;23.02;;;;;;;;;;5029603;28;20025;-65
2022/11/28 07:33:31;;;;;;;25.70;22.98;;;;;;;;;;5012314;28;20030;-66
2022/11/28 07:36:07;;;;;;;29.48;23.50;;;;;;;;;;5030318;28;20037;-63
2022/11/28 07:38:33;;;;;;;26.08;23.27;;;;;;;;;;5027002;28;20060;-60
2022/11/28 07:41:05;;;;;;;26.75;22.20;;;;;;;;;;5029134;28;20103;-62
2022/11/28 07:43:31;;;;;;;26.35;22.60;;;;;;;;;;5030224;28;20530;-65
2022/11/28 07:45:57;;;;;;;25.70;23.00;;;;;;;;;;5029864;28;20101;-63
2022/11/28 07:48:23;;;;;;;26.58;23.58;;;;;;;;;;5012234;28;20343;-65
2022/11/28 07:50:49;;;;;;;26.25;23.45;;;;;;;;;;5029250;28;20029;-63
2022/11/28 07:53:15;;;;;;;25.55;21.80;;;;;;;;;;5012221;28;20060;-65
2022/11/28 07:55:41;;;;;;;28.00;22.38;;;;;;;;;;5030027;28;20025;-66
2022/11/28 07:58:07;;;;;;;25.30;22.23;;;;;;;;;;5012418;28;20021;-66
2022/11/28 08:00:33;;;;;;;26.60;21.77;;;;;;;;;;5030116;28;20041;-66
2022/11/28 08:02:59;;;;;;;28.23;21.48;;;;;;;;;;5030063;28;20131;-66
2022/11/28 08:05:26;;;;;;;25.08;20.98;;;;;;;;;;5012493;28;20421;-66
2022/11/28 08:07:52;;;;;;;27.10;20.23;;;;;;;;;;5030597;28;20026;-63
2022/11/28 08:10:18;;;;;;;23.35;20.02;;;;;;;;;;5030459;28;20109;-64
2022/11/28 08:12:44;;;;;;;23.42;20.25;;;;;;;;;;5012740;28;20033;-65
2022/11/28 08:15:10;;;;;;;22.50;19.90;;;;;;;;;;5030191;28;20061;-64
2022/11/28 08:17:36;;;;;;;23.95;19.92;;;;;;;;;;5029701;28;20132;-65
2022/11/28 08:20:03;;;;;;;22.27;19.77;;;;;;;;;;5029899;28;20088;-62
2022/11/28 08:22:29;;;;;;;24.02;19.70;;;;;;;;;;5030075;28;20025;-62
2022/11/28 08:24:55;;;;;;;23.58;19.65;;;;;;;;;;5029646;28;20025;-62
2022/11/28 08:27:21;;;;;;;24.98;19.75;;;;;;;;;;5033610;28;20032;-62
2022/11/28 08:29:47;;;;;;;22.45;18.52;;;;;;;;;;5015626;28;20121;-62
2022/11/28 08:32:13;;;;;;;25.95;20.02;;;;;;;;;;5016158;28;20033;-61
2022/11/28 08:34:39;;;;;;;23.88;19.08;;;;;;;;;;5033231;28;20397;-63
2022/11/28 08:37:05;;;;;;;22.08;18.75;;;;;;;;;;5033496;28;20033;-63
2022/11/28 08:39:32;;;;;;;21.73;18.85;;;;;;;;;;5015312;28;20045;-62
2022/11/28 08:41:59;;;;;;;24.13;18.38;;;;;;;;;;5033101;28;20100;-63
2022/11/28 08:44:28;;;;;;;22.95;18.40;;;;;;;;;;5032944;28;20028;-62
2022/11/28 08:46:54;;;;;;;24.63;18.65;;;;;;;;;;5033432;28;20026;-64
2022/11/28 08:49:20;;;;;;;23.80;18.95;;;;;;;;;;5033039;28;20472;-62
2022/11/28 08:51:46;;;;;;;26.15;18.20;;;;;;;;;;5033266;28;20021;-62
2022/11/28 08:54:12;;;;;;;21.55;17.08;;;;;;;;;;5032765;28;20064;-64
2022/11/28 08:56:38;;;;;;;23.60;17.00;;;;;;;;;;5033139;28;20033;-63
2022/11/28 08:59:05;;;;;;;23.42;17.85;;;;;;;;;;5032826;28;20076;-63
2022/11/28 09:01:33;;;;;;;22.13;17.83;;;;;;;;;;5032975;28;20025;-63
2022/11/28 09:03:59;;;;;;;24.75;18.20;;;;;;;;;;5032659;28;20021;-63
2022/11/28 09:06:25;;;;;;;21.17;17.02;;;;;;;;;;5032785;28;20029;-63
2022/11/28 09:08:52;;;;;;;21.58;16.52;;;;;;;;;;5032785;28;20025;-66
2022/11/28 09:11:19;;;;;;;22.38;16.90;;;;;;;;;;5015052;28;20404;-66
2022/11/28 09:13:45;;;;;;;27.42;16.88;;;;;;;;;;5032917;28;20108;-65
2022/11/28 09:16:12;;;;;;;21.88;16.73;;;;;;;;;;5033022;28;20021;-64
2022/11/28 09:18:39;;;;;;;21.58;17.20;;;;;;;;;;5032474;28;20432;-63
2022/11/28 09:21:10;;;;;;;22.50;17.38;;;;;;;;;;5032845;28;20436;-63
2022/11/28 09:23:37;;;;;;;20.55;16.70;;;;;;;;;;5032486;28;20021;-65
2022/11/28 09:26:10;;;;;;;20.30;16.33;;;;;;;;;;5015002;28;20025;-65
2022/11/28 09:28:37;;;;;;;22.55;16.60;;;;;;;;;;5032639;28;20637;-65
2022/11/28 09:31:04;;;;;;;22.38;18.13;;;;;;;;;;5032445;28;20112;-68
2022/11/28 09:33:30;;;;;;;21.60;17.15;;;;;;;;;;5032374;28;20052;-68
2022/11/28 09:35:57;;;;;;;25.80;17.30;;;;;;;;;;5032001;28;20061;-66
2022/11/28 09:38:23;;;;;;;20.38;16.67;;;;;;;;;;5032440;28;20048;-65
2022/11/28 09:40:50;;;;;;;22.30;16.73;;;;;;;;;;5031801;28;20447;-66
2022/11/28 09:43:16;;;;;;;20.98;16.95;;;;;;;;;;5031690;28;20025;-66
2022/11/28 09:45:44;;;;;;;21.70;18.15;;;;;;;;;;5032132;28;20029;-65
2022/11/28 09:48:34;;;;;;;21.58;16.25;;;;;;;;;;5031898;28;20121;-66
2022/11/28 09:51:04;;;;;;;20.77;16.95;;;;;;;;;;5031364;28;20028;-66
2022/11/28 09:53:41;;;;;;;22.33;16.38;;;;;;;;;;5031480;28;20071;-66
2022/11/28 09:56:15;;;;;;;21.27;16.33;;;;;;;;;;5031865;28;20013;-66
2022/11/28 09:58:43;;;;;;;22.42;17.67;;;;;;;;;;5031381;28;20493;-65
2022/11/28 10:01:24;;;;;;;21.17;16.35;;;;;;;;;;5031536;28;20112;-66
2022/11/28 10:04:26;;;;;;;25.15;17.92;;;;;;;;;;5031685;28;20517;-65
2022/11/28 10:07:09;;;;;;;22.23;17.58;;;;;;;;;;4932245;29;20036;-66
2022/11/28 10:09:44;;;;;;;23.42;17.00;;;;;;;;;;5023416;28;20037;-66
2022/11/28 10:12:10;;;;;;;20.85;15.98;;;;;;;;;;5030947;28;20026;-67
2022/11/28 10:14:36;;;;;;;21.88;16.85;;;;;;;;;;5031432;28;20048;-67
2022/11/28 10:17:18;;;;;;;23.08;17.40;;;;;;;;;;5031375;28;20494;-67
2022/11/28 10:19:54;;;;;;;21.20;16.45;;;;;;;;;;5031315;28;20069;-65
2022/11/28 10:22:22;;;;;;;20.67;16.45;;;;;;;;;;5031423;28;20024;-66
2022/11/28 10:24:53;;;;;;;23.23;17.58;;;;;;;;;;5013457;28;20032;-67
2022/11/28 10:27:20;;;;;;;21.08;16.67;;;;;;;;;;5031509;28;20045;-66
2022/11/28 10:29:51;;;;;;;22.85;17.23;;;;;;;;;;5031296;28;20494;-67
2022/11/28 10:32:19;;;;;;;24.05;17.83;;;;;;;;;;5013294;28;20026;-66
2022/11/28 10:34:45;;;;;;;22.38;17.65;;;;;;;;;;5031463;28;20469;-67
2022/11/28 10:37:25;;;;;;;24.45;16.90;;;;;;;;;;5013232;28;20379;-65
2022/11/28 10:39:52;;;;;;;21.70;16.52;;;;;;;;;;5030899;28;20448;-66
2022/11/28 10:42:18;;;;;;;22.10;16.60;;;;;;;;;;5031195;28;20428;-66
2022/11/28 10:44:44;;;;;;;22.63;16.95;;;;;;;;;;5013251;28;20187;-68
2022/11/28 10:47:19;;;;;;;24.42;17.17;;;;;;;;;;5031227;28;20100;-67
2022/11/28 10:49:51;;;;;;;20.90;16.05;;;;;;;;;;5030541;28;20032;-66
2022/11/28 10:52:21;;;;;;;21.90;16.63;;;;;;;;;;5012906;28;20577;-65
2022/11/28 10:54:50;;;;;;;21.15;17.63;;;;;;;;;;5030677;28;20470;-66
2022/11/28 10:57:22;;;;;;;21.80;16.58;;;;;;;;;;5030818;28;20022;-66
2022/11/28 10:59:54;;;;;;;22.92;16.63;;;;;;;;;;5030559;28;20029;-67
2022/11/28 11:02:40;;;;;;;22.10;16.63;;;;;;;;;;5030766;28;20041;-67
2022/11/28 11:05:11;;;;;;;20.85;16.25;;;;;;;;;;5030403;28;20378;-67
2022/11/28 11:07:37;;;;;;;22.52;16.08;;;;;;;;;;5030936;28;20022;-66
2022/11/28 11:10:14;;;;;;;22.35;16.23;;;;;;;;;;5030540;28;20030;-67
2022/11/28 11:12:40;;;;;;;21.23;15.82;;;;;;;;;;5030529;28;20025;-70
2022/11/28 11:15:36;;;;;;;21.17;15.73;;;;;;;;;;5030361;28;20037;-65
2022/11/28 11:18:18;;;;;;;22.52;16.25;;;;;;;;;;5004714;28;20064;-66
2022/11/28 11:20:44;;;;;;;24.60;16.08;;;;;;;;;;5030115;28;20024;-65
2022/11/28 11:23:16;;;;;;;20.80;16.23;;;;;;;;;;5030269;28;20021;-66
2022/11/28 11:25:57;;;;;;;20.63;15.30;;;;;;;;;;5030469;28;20025;-64
2022/11/28 11:28:32;;;;;;;21.42;16.55;;;;;;;;;;5012589;28;20141;-66
2022/11/28 11:31:00;;;;;;;20.70;16.00;;;;;;;;;;5030165;28;20050;-65
2022/11/28 11:33:28;;;;;;;21.20;15.60;;;;;;;;;;5012198;28;20060;-66
2022/11/28 11:35:54;;;;;;;23.73;16.05;;;;;;;;;;5039282;28;20083;-66
2022/11/28 11:38:20;;;;;;;21.50;15.77;;;;;;;;;;5050022;28;20033;-65
2022/11/28 11:40:47;;;;;;;21.00;15.90;;;;;;;;;;5043209;22;20072;-61
2022/11/28 11:43:29;;;;;;;21.02;15.43;;;;;;;;;;5036489;28;20033;-61
2022/11/28 11:46:09;;;;;;;20.13;14.80;;;;;;;;;;5031589;28;20024;-55
2022/11/28 11:48:36;;;;;;;21.65;15.02;;;;;;;;;;5031572;28;20117;-56
2022/11/28 11:51:03;;;;;;;20.33;14.88;;;;;;;;;;5030105;28;20026;-61
2022/11/28 11:53:29;;;;;;;19.83;14.50;;;;;;;;;;5031111;28;20062;-59
2022/11/28 11:55:57;;;;;;;23.13;15.18;;;;;;;;;;5031523;28;20068;-60
2022/11/28 11:58:26;;;;;;;20.98;14.57;;;;;;;;;;5031339;28;20021;-58
2022/11/28 12:00:54;;;;;;;25.85;14.60;;;;;;;;;;5032423;28;20029;-59
2022/11/28 12:03:26;;;;;;;22.10;13.52;;;;;;;;;;5035589;28;20072;-57
2022/11/28 12:05:54;;;;;;;19.60;13.32;;;;;;;;;;5035388;28;20034;-57
2022/11/28 12:08:26;;;;;;;20.48;13.43;;;;;;;;;;5029065;28;20120;-59
2022/11/28 12:10:58;;;;;;;21.02;13.40;;;;;;;;;;5014051;28;20081;-61
2022/11/28 12:13:26;;;;;;;23.02;13.75;;;;;;;;;;4313114;28;10000597;-59
2022/11/28 12:16:03;;;;;;;22.13;14.45;;;;;;;;;;5011148;28;20057;-60
2022/11/28 12:18:29;;;;;;;21.92;14.18;;;;;;;;;;5014358;28;20141;-62
2022/11/28 12:20:55;;;;;;;21.63;13.48;;;;;;;;;;5013489;28;20064;-57
2022/11/28 12:23:39;;;;;;;20.70;13.45;;;;;;;;;;5012009;28;20648;-61
2022/11/28 12:26:15;;;;;;;21.20;13.82;;;;;;;;;;5009596;28;20133;-61
2022/11/28 12:28:47;;;;;;;21.25;14.05;;;;;;;;;;5012506;28;20022;-62
2022/11/28 12:31:31;;;;;;;20.48;13.48;;;;;;;;;;5012865;28;20095;-63
2022/11/28 12:34:16;;;;;;;20.23;13.57;;;;;;;;;;4666036;28;10000488;-61
2022/11/28 12:36:52;;;;;;;21.27;13.57;;;;;;;;;;5011212;28;20034;-63
2022/11/28 12:39:36;;;;;;;19.70;12.90;;;;;;;;;;5012341;28;20022;-62
2022/11/28 12:42:27;;;;;;;20.05;13.00;;;;;;;;;;5012269;28;20426;-61
2022/11/28 12:45:08;;;;;;;20.33;13.50;;;;;;;;;;5011489;28;20030;-62
2022/11/28 12:47:34;;;;;;;23.63;13.52;;;;;;;;;;5009218;28;20030;-61
2022/11/28 12:50:00;;;;;;;21.02;14.50;;;;;;;;;;5011684;28;20042;-60
2022/11/28 12:52:35;;;;;;;20.75;13.57;;;;;;;;;;5011711;28;20114;-59
2022/11/28 12:55:23;;;;;;;21.08;13.65;;;;;;;;;;5010272;28;20272;-62
2022/11/28 12:57:49;;;;;;;21.80;14.25;;;;;;;;;;5011550;28;20067;-63
2022/11/28 13:00:23;;;;;;;20.80;13.98;;;;;;;;;;5011569;28;20570;-63
2022/11/28 13:03:05;;;;;;;25.70;14.57;;;;;;;;;;5011527;28;20030;-62
2022/11/28 13:05:50;;;;;;;20.52;14.13;;;;;;;;;;5011525;28;20532;-59
2022/11/28 13:08:25;;;;;;;21.73;13.77;;;;;;;;;;5010095;28;20611;-63
2022/11/28 13:11:03;;;;;;;22.60;14.43;;;;;;;;;;5011162;28;20034;-60
2022/11/28 13:13:33;;;;;;;20.92;13.75;;;;;;;;;;5009564;28;20040;-62
2022/11/28 13:16:10;;;;;;;21.58;13.88;;;;;;;;;;5011221;28;20391;-61
2022/11/28 13:18:40;;;;;;;21.73;14.38;;;;;;;;;;5009862;28;20030;-62
2022/11/28 13:21:06;;;;;;;21.50;14.85;;;;;;;;;;5009256;28;20026;-62
2022/11/28 13:23:36;;;;;;;23.00;14.05;;;;;;;;;;5008874;28;20065;-62
2022/11/28 13:26:02;;;;;;;23.83;14.52;;;;;;;;;;5008851;28;20164;-61
2022/11/28 13:28:37;;;;;;;26.20;15.65;;;;;;;;;;5010540;28;20661;-61
2022/11/28 13:31:06;;;;;;;22.83;16.38;;;;;;;;;;5010479;28;20053;-62
2022/11/28 13:33:32;;;;;;;24.13;18.88;;;;;;;;;;5008713;28;20449;-63
2022/11/28 13:35:59;;;;;;;24.08;20.48;;;;;;;;;;4665685;28;10000400;-61
2022/11/28 13:38:30;;;;;;;26.17;20.70;;;;;;;;;;5010925;28;20514;-61
2022/11/28 13:40:59;;;;;;;24.17;20.85;;;;;;;;;;5009340;28;20571;-62
2022/11/28 13:43:38;;;;;;;28.02;21.90;;;;;;;;;;5010319;28;20385;-62
2022/11/28 13:46:06;;;;;;;25.95;22.77;;;;;;;;;;5010476;28;20045;-62
2022/11/28 13:48:36;;;;;;;26.17;23.38;;;;;;;;;;5010701;28;20112;-59
2022/11/28 13:51:14;;;;;;;27.33;24.42;;;;;;;;;;5010175;28;20018;-58
2022/11/28 13:53:41;;;;;;;27.38;24.35;;;;;;;;;;5009133;28;20022;-59
2022/11/28 13:56:07;;;;;;;29.10;24.27;;;;;;;;;;5008999;28;20065;-63
2022/11/28 13:58:52;;;;;;;26.73;22.40;;;;;;;;;;5010429;28;20029;-63
2022/11/28 14:01:22;;;;;;;27.35;23.75;;;;;;;;;;5009839;28;20025;-60
2022/11/28 14:03:49;;;;;;;27.30;24.33;;;;;;;;;;5008470;28;20109;-58
2022/11/28 14:06:20;;;;;;;28.90;25.63;;;;;;;;;;5011013;28;20109;-65
2022/11/28 14:08:47;;;;;;;27.73;23.08;;;;;;;;;;5011461;28;20037;-58
2022/11/28 14:11:13;;;;;;;27.40;24.23;;;;;;;;;;4676175;28;9999759;-64
2022/11/28 14:13:55;;;;;;;26.02;22.75;;;;;;;;;;5011176;28;20501;-60
2022/11/28 14:16:35;;;;;;;25.80;21.70;;;;;;;;;;5010812;28;20026;-64
2022/11/28 14:19:16;;;;;;;26.63;23.42;;;;;;;;;;5028137;28;20037;-60
2022/11/28 14:21:42;;;;;;;28.98;23.15;;;;;;;;;;5007774;28;20112;-61
2022/11/28 14:24:18;;;;;;;27.98;25.02;;;;;;;;;;5023569;28;20109;-60
2022/11/28 14:26:44;;;;;;;29.08;25.42;;;;;;;;;;5009330;28;20092;-62
2022/11/28 14:29:21;;;;;;;26.98;23.52;;;;;;;;;;5011487;28;20104;-64
2022/11/28 14:31:47;;;;;;;27.60;23.40;;;;;;;;;;5010587;28;20104;-62
2022/11/28 14:34:37;;;;;;;28.83;25.10;;;;;;;;;;5010784;28;20030;-62
2022/11/28 14:37:25;;;;;;;28.67;25.60;;;;;;;;;;4998829;28;20119;-62